logo
Search for airport 
image banner adimage banner adimage banner ad
image banner ad

OPFA - Faisalabad Int'l

Located in Faisalabad, Pakistan

ICAO - OPFA, IATA - LYP

Data provided by Airmate  

General information

Coordinates: N31°21'55" E72°59'44"
Elevation is 591 feet MSL.
 
View others Airports in Punjab

Operational data

Special qualification required
Current time UTC:
Current local time:
Weather
METAR: OPFA 130555Z 31008KT 4000 RA SCT040 BKN100 21/18 Q1014 TEMPO 31015G25KT 1500 TSRA FEW030CB
TAF: TAF OPFA 122335Z 1300/1406 13006KT 5000 FU SCT040 SCT100 TX31/1310Z TN18/1301Z TEMPO 1307/1310 31015G30KT 3000 TSRA FEW030CB SCT040 BKN100 TEMPO 1321/1323 36015G25KT 2500 TSRA FEW030CB SCT040 SCT100
View NOTAMs / SUP AIP / TFR affecting this airport [VIEW]
Communications frequencies: [VIEW]

Runways:

RWY identifierQFULength (ft)Width (ft)SurfaceLDA (ft)
03R36°9272151UNK
21L216°9272151UNK
03L36°899998UNK
21R216°899998UNK

Airport contact information

Address: Faisalabad Pakistan

Satellite view of OPFA